Stratton, Maine
Current Conditions -  °F | °C
As of 6:52 PM on Monday 20 Oct 2014 (Local Time) from KBML Reporting Station
Overcast Overcast  
Wind Chill: 41°   Ceiling: 5000
Heat Index: 41°   Visibility: 10mi
Dew Point: 33°   Wind: 0mph
Humidity: 73%   Direction: NA
Pressure: 29.94"   Gusts: NA
Location:  45.14°N, 70.44°W
Report Text: KBML 202252Z AUTO 00000KT 10SM BKN050 OVC070 05/01 A2994 RMK AO2 SLP149 T00500006
Loading
Personal Weather Stations






























Interactive Weather Map New forecast layout! Learn more

10-Day Weather Forecast

Advertisements
Track Severe Weather on mobile